York Beach, ME

5:03 PM EDT on July 05, 2015 (GMT -0400)
Short Sands | | Change Station
CLOSE
Current Station
Personal Weather Station
Location: York Beach, ME
Elevation: 36 ft
Nearby Weather Stations

Elev 36 ft 43.17 °N, 70.61 °W | Updated 18 seconds ago

Partly Cloudy
Partly Cloudy
73.6 °F
Feels Like 76 °F
N
8.1
Wind Variable Wind from SSE
Gusts 11.0 mph

Today
High -- | Low -- °F
--% Chance of Precip.
Yesterday
High -- | Low -- °F
Precip. -- in
5:08 AM 8:25 PM
Waning Gibbous, 82% visible
Pressure 30.03 in
Visibility 10.0 miles
Clouds Few 6000 ft
Scattered Clouds 9500 ft
Mostly Cloudy 20000 ft
Heat Index 76 °F
Dew Point 62 °F
Humidity 68%
Rainfall 0.00 in
Snow Depth Not available.
UV 2.1 out of 12
Pollen 5.00 out of 12
Air Quality Not available.
Flu Activity Not available.
METAR KPSM 052058Z 26007KT 10SM FEW060 SCT095 BKN200 29/15 A3002 RMK AO2A SLP168 T02880149 55003

More Conditions Fewer Conditions

Pressure 30.03 in
Visibility 10.0 miles
Clouds Few 6000 ft
Scattered Clouds 9500 ft
Mostly Cloudy 20000 ft
Heat Index 76 °F
Dew Point 62 °F
Humidity 68%
Rainfall 0.00 in
Snow Depth Not available.
UV 2.1 out of 12
Pollen 5.00 out of 12
Air Quality Not available.
Flu Activity Not available.
METAR KPSM 052058Z 26007KT 10SM FEW060 SCT095 BKN200 29/15 A3002 RMK AO2A SLP168 T02880149 55003

More Conditions Fewer Conditions

10-Day Weather Forecast

×

Almanac

Astronomy

Jul. 05, 2015 Rise Set
Actual Time
Civil Twilight
Nautical Twilight
Astronomical Twilight
Moon
Length of Visible Light
Length of Day
Tomorrow will be .
, % of the Moon is Illuminated

Today's Extremes

State Highs State Lows

Community

WunderPhotos

Upload Photos

1,835,386 photos uploaded!

WunderBlogs® & News

Nearby

Air Quality

  Air Quality AQ Index Pollutant
Not available.

Snow Depth

Station Depth Elevation

Earthquake Activity

City Distance Mag. Time & Date
Minimum magnitude displayed is 2.5.

Coastal Water Temperatures

Place Temperature

Stations

Nearby Weather Stations

Station Location Temp. Windchill Dew Point Humidity Wind Precip. Elev Updated Type